sensor_id;sensor_type;location;lat;lon;timestamp;P1;durP1;ratioP1;P2;durP2;ratioP2
46080;SDS011;31821;51.880;-0.518;2022-09-09T00:00:40;3.58;;;1.50;;
46080;SDS011;31821;51.880;-0.518;2022-09-09T00:08:57;2.78;;;1.20;;
46080;SDS011;31821;51.880;-0.518;2022-09-09T00:16:55;3.45;;;1.42;;
46080;SDS011;31821;51.880;-0.518;2022-09-09T00:19:31;3.60;;;1.40;;
46080;SDS011;31821;51.880;-0.518;2022-09-09T00:24:46;3.07;;;1.50;;
46080;SDS011;31821;51.880;-0.518;2022-09-09T00:27:31;3.45;;;1.60;;
46080;SDS011;31821;51.880;-0.518;2022-09-09T00:30:22;3.58;;;1.40;;
46080;SDS011;31821;51.880;-0.518;2022-09-09T00:32:50;3.22;;;1.67;;
46080;SDS011;31821;51.880;-0.518;2022-09-09T00:38:05;2.72;;;1.20;;
46080;SDS011;31821;51.880;-0.518;2022-09-09T00:40:45;2.50;;;1.17;;
46080;SDS011;31821;51.880;-0.518;2022-09-09T00:46:03;3.15;;;1.42;;
46080;SDS011;31821;51.880;-0.518;2022-09-09T00:57:07;2.92;;;1.42;;
46080;SDS011;31821;51.880;-0.518;2022-09-09T00:59:46;2.50;;;1.20;;
46080;SDS011;31821;51.880;-0.518;2022-09-09T01:02:27;2.67;;;1.30;;
46080;SDS011;31821;51.880;-0.518;2022-09-09T01:05:07;2.50;;;1.42;;
46080;SDS011;31821;51.880;-0.518;2022-09-09T01:07:38;3.35;;;1.58;;
46080;SDS011;31821;51.880;-0.518;2022-09-09T01:10:11;3.05;;;1.30;;
46080;SDS011;31821;51.880;-0.518;2022-09-09T01:12:50;4.53;;;1.38;;
46080;SDS011;31821;51.880;-0.518;2022-09-09T01:15:22;3.17;;;1.40;;
46080;SDS011;31821;51.880;-0.518;2022-09-09T01:22:52;3.38;;;1.42;;
46080;SDS011;31821;51.880;-0.518;2022-09-09T01:28:22;3.60;;;1.40;;
46080;SDS011;31821;51.880;-0.518;2022-09-09T01:30:52;2.42;;;1.30;;
46080;SDS011;31821;51.880;-0.518;2022-09-09T01:33:18;2.88;;;1.30;;
46080;SDS011;31821;51.880;-0.518;2022-09-09T01:35:48;3.28;;;1.50;;
46080;SDS011;31821;51.880;-0.518;2022-09-09T01:38:16;2.65;;;1.50;;
46080;SDS011;31821;51.880;-0.518;2022-09-09T01:40:43;3.28;;;1.40;;
46080;SDS011;31821;51.880;-0.518;2022-09-09T01:43:09;2.80;;;1.15;;
46080;SDS011;31821;51.880;-0.518;2022-09-09T01:45:35;2.53;;;1.20;;
46080;SDS011;31821;51.880;-0.518;2022-09-09T01:48:02;2.70;;;1.45;;
46080;SDS011;31821;51.880;-0.518;2022-09-09T01:50:28;2.85;;;1.45;;
46080;SDS011;31821;51.880;-0.518;2022-09-09T01:52:56;2.83;;;1.30;;
46080;SDS011;31821;51.880;-0.518;2022-09-09T01:55:29;2.78;;;1.35;;
46080;SDS011;31821;51.880;-0.518;2022-09-09T01:58:11;3.40;;;1.40;;
46080;SDS011;31821;51.880;-0.518;2022-09-09T02:00:40;1.65;;;1.00;;
46080;SDS011;31821;51.880;-0.518;2022-09-09T02:08:52;2.38;;;1.20;;
46080;SDS011;31821;51.880;-0.518;2022-09-09T02:11:24;3.38;;;1.50;;
46080;SDS011;31821;51.880;-0.518;2022-09-09T02:14:00;2.90;;;1.30;;
46080;SDS011;31821;51.880;-0.518;2022-09-09T02:19:09;2.72;;;1.30;;
46080;SDS011;31821;51.880;-0.518;2022-09-09T02:21:39;2.40;;;1.40;;
46080;SDS011;31821;51.880;-0.518;2022-09-09T02:24:09;2.70;;;1.40;;
46080;SDS011;31821;51.880;-0.518;2022-09-09T02:26:40;2.75;;;1.20;;
46080;SDS011;31821;51.880;-0.518;2022-09-09T02:29:10;2.30;;;1.10;;
46080;SDS011;31821;51.880;-0.518;2022-09-09T02:31:41;2.40;;;1.20;;
46080;SDS011;31821;51.880;-0.518;2022-09-09T02:34:08;2.70;;;1.30;;
46080;SDS011;31821;51.880;-0.518;2022-09-09T02:36:36;3.15;;;1.30;;
46080;SDS011;31821;51.880;-0.518;2022-09-09T02:39:05;1.75;;;1.20;;
46080;SDS011;31821;51.880;-0.518;2022-09-09T02:41:34;3.17;;;1.45;;
46080;SDS011;31821;51.880;-0.518;2022-09-09T02:44:05;3.55;;;1.35;;
46080;SDS011;31821;51.880;-0.518;2022-09-09T02:49:30;2.50;;;1.45;;
46080;SDS011;31821;51.880;-0.518;2022-09-09T02:52:08;2.28;;;1.15;;
46080;SDS011;31821;51.880;-0.518;2022-09-09T02:54:43;2.00;;;1.02;;
46080;SDS011;31821;51.880;-0.518;2022-09-09T02:57:17;2.60;;;1.30;;
46080;SDS011;31821;51.880;-0.518;2022-09-09T02:59:44;2.20;;;1.17;;
46080;SDS011;31821;51.880;-0.518;2022-09-09T03:02:10;3.45;;;1.30;;
46080;SDS011;31821;51.880;-0.518;2022-09-09T03:04:39;2.75;;;1.40;;
46080;SDS011;31821;51.880;-0.518;2022-09-09T03:07:06;2.13;;;1.05;;
46080;SDS011;31821;51.880;-0.518;2022-09-09T03:09:33;2.47;;;1.40;;
46080;SDS011;31821;51.880;-0.518;2022-09-09T03:11:58;2.40;;;1.30;;
46080;SDS011;31821;51.880;-0.518;2022-09-09T03:14:24;1.77;;;1.13;;
46080;SDS011;31821;51.880;-0.518;2022-09-09T03:16:50;2.53;;;1.10;;
46080;SDS011;31821;51.880;-0.518;2022-09-09T03:19:16;1.88;;;1.10;;
46080;SDS011;31821;51.880;-0.518;2022-09-09T03:21:44;2.85;;;1.40;;
46080;SDS011;31821;51.880;-0.518;2022-09-09T03:24:10;2.60;;;1.20;;
46080;SDS011;31821;51.880;-0.518;2022-09-09T03:26:35;1.95;;;1.20;;
46080;SDS011;31821;51.880;-0.518;2022-09-09T03:29:02;1.95;;;1.10;;
46080;SDS011;31821;51.880;-0.518;2022-09-09T03:31:31;1.65;;;1.00;;
46080;SDS011;31821;51.880;-0.518;2022-09-09T03:33:58;2.70;;;1.13;;
46080;SDS011;31821;51.880;-0.518;2022-09-09T03:36:24;2.13;;;1.10;;
46080;SDS011;31821;51.880;-0.518;2022-09-09T03:38:51;2.22;;;1.10;;
46080;SDS011;31821;51.880;-0.518;2022-09-09T03:41:17;2.35;;;1.20;;
46080;SDS011;31821;51.880;-0.518;2022-09-09T03:43:43;1.73;;;0.95;;
46080;SDS011;31821;51.880;-0.518;2022-09-09T03:46:09;2.13;;;1.13;;
46080;SDS011;31821;51.880;-0.518;2022-09-09T03:48:35;2.28;;;1.10;;
46080;SDS011;31821;51.880;-0.518;2022-09-09T03:51:00;2.22;;;1.20;;
46080;SDS011;31821;51.880;-0.518;2022-09-09T03:53:26;1.92;;;1.10;;
46080;SDS011;31821;51.880;-0.518;2022-09-09T03:55:53;1.73;;;1.00;;
46080;SDS011;31821;51.880;-0.518;2022-09-09T03:58:20;1.83;;;1.10;;
46080;SDS011;31821;51.880;-0.518;2022-09-09T04:00:55;2.33;;;1.15;;
46080;SDS011;31821;51.880;-0.518;2022-09-09T04:03:23;1.75;;;1.20;;
46080;SDS011;31821;51.880;-0.518;2022-09-09T04:05:52;2.90;;;1.30;;
46080;SDS011;31821;51.880;-0.518;2022-09-09T04:08:19;2.15;;;1.05;;
46080;SDS011;31821;51.880;-0.518;2022-09-09T04:10:46;2.40;;;1.10;;
46080;SDS011;31821;51.880;-0.518;2022-09-09T04:13:13;2.72;;;1.20;;
46080;SDS011;31821;51.880;-0.518;2022-09-09T04:15:41;1.55;;;0.93;;
46080;SDS011;31821;51.880;-0.518;2022-09-09T04:18:08;1.60;;;1.00;;
46080;SDS011;31821;51.880;-0.518;2022-09-09T04:20:34;1.75;;;1.08;;
46080;SDS011;31821;51.880;-0.518;2022-09-09T04:23:00;1.58;;;1.02;;
46080;SDS011;31821;51.880;-0.518;2022-09-09T04:25:26;1.67;;;0.95;;
46080;SDS011;31821;51.880;-0.518;2022-09-09T04:27:55;1.83;;;1.10;;
46080;SDS011;31821;51.880;-0.518;2022-09-09T04:30:22;2.10;;;1.10;;
46080;SDS011;31821;51.880;-0.518;2022-09-09T04:32:48;2.17;;;1.20;;
46080;SDS011;31821;51.880;-0.518;2022-09-09T04:35:13;1.77;;;1.10;;
46080;SDS011;31821;51.880;-0.518;2022-09-09T04:37:39;2.60;;;1.08;;
46080;SDS011;31821;51.880;-0.518;2022-09-09T04:40:06;2.42;;;1.30;;
46080;SDS011;31821;51.880;-0.518;2022-09-09T04:42:35;2.30;;;1.20;;
46080;SDS011;31821;51.880;-0.518;2022-09-09T04:45:01;1.80;;;1.05;;
46080;SDS011;31821;51.880;-0.518;2022-09-09T04:47:26;2.90;;;1.20;;
46080;SDS011;31821;51.880;-0.518;2022-09-09T04:49:52;1.88;;;1.00;;
46080;SDS011;31821;51.880;-0.518;2022-09-09T04:52:19;1.98;;;1.10;;
46080;SDS011;31821;51.880;-0.518;2022-09-09T04:54:45;2.30;;;1.38;;
46080;SDS011;31821;51.880;-0.518;2022-09-09T04:57:11;1.63;;;1.10;;
46080;SDS011;31821;51.880;-0.518;2022-09-09T04:59:36;2.22;;;1.10;;
46080;SDS011;31821;51.880;-0.518;2022-09-09T05:02:02;1.73;;;0.95;;
46080;SDS011;31821;51.880;-0.518;2022-09-09T05:04:29;2.00;;;1.10;;
46080;SDS011;31821;51.880;-0.518;2022-09-09T05:06:54;1.95;;;1.08;;
46080;SDS011;31821;51.880;-0.518;2022-09-09T05:09:20;2.80;;;1.30;;
46080;SDS011;31821;51.880;-0.518;2022-09-09T05:11:46;2.35;;;1.10;;
46080;SDS011;31821;51.880;-0.518;2022-09-09T05:14:12;2.17;;;1.20;;
46080;SDS011;31821;51.880;-0.518;2022-09-09T05:16:37;2.47;;;1.27;;
46080;SDS011;31821;51.880;-0.518;2022-09-09T05:19:03;1.77;;;1.00;;
46080;SDS011;31821;51.880;-0.518;2022-09-09T05:21:28;2.03;;;1.20;;
46080;SDS011;31821;51.880;-0.518;2022-09-09T05:23:55;1.92;;;1.02;;
46080;SDS011;31821;51.880;-0.518;2022-09-09T05:26:21;2.22;;;1.00;;
46080;SDS011;31821;51.880;-0.518;2022-09-09T05:28:48;1.75;;;0.90;;
46080;SDS011;31821;51.880;-0.518;2022-09-09T05:31:14;1.70;;;1.00;;
46080;SDS011;31821;51.880;-0.518;2022-09-09T05:33:41;1.80;;;1.00;;
46080;SDS011;31821;51.880;-0.518;2022-09-09T05:36:12;1.80;;;0.90;;
46080;SDS011;31821;51.880;-0.518;2022-09-09T05:38:42;1.60;;;1.05;;
46080;SDS011;31821;51.880;-0.518;2022-09-09T05:41:09;2.42;;;1.13;;
46080;SDS011;31821;51.880;-0.518;2022-09-09T05:43:40;1.80;;;1.10;;
46080;SDS011;31821;51.880;-0.518;2022-09-09T05:46:13;2.22;;;1.20;;
46080;SDS011;31821;51.880;-0.518;2022-09-09T05:48:40;2.40;;;1.10;;
46080;SDS011;31821;51.880;-0.518;2022-09-09T05:51:10;2.30;;;1.15;;
46080;SDS011;31821;51.880;-0.518;2022-09-09T05:53:37;2.38;;;1.30;;
46080;SDS011;31821;51.880;-0.518;2022-09-09T05:58:31;2.10;;;1.02;;
46080;SDS011;31821;51.880;-0.518;2022-09-09T06:01:13;2.63;;;1.30;;
46080;SDS011;31821;51.880;-0.518;2022-09-09T06:03:41;2.38;;;1.02;;
46080;SDS011;31821;51.880;-0.518;2022-09-09T06:06:12;1.80;;;1.10;;
46080;SDS011;31821;51.880;-0.518;2022-09-09T06:08:40;1.85;;;0.90;;
46080;SDS011;31821;51.880;-0.518;2022-09-09T06:13:42;2.05;;;1.08;;
46080;SDS011;31821;51.880;-0.518;2022-09-09T06:16:12;1.77;;;1.00;;
46080;SDS011;31821;51.880;-0.518;2022-09-09T06:18:39;2.25;;;1.10;;
46080;SDS011;31821;51.880;-0.518;2022-09-09T06:21:06;1.38;;;0.93;;
46080;SDS011;31821;51.880;-0.518;2022-09-09T06:23:34;2.00;;;1.10;;
46080;SDS011;31821;51.880;-0.518;2022-09-09T06:26:10;1.83;;;1.23;;
46080;SDS011;31821;51.880;-0.518;2022-09-09T06:28:38;1.45;;;1.10;;
46080;SDS011;31821;51.880;-0.518;2022-09-09T06:31:05;1.40;;;0.98;;
46080;SDS011;31821;51.880;-0.518;2022-09-09T06:33:33;1.63;;;1.00;;
46080;SDS011;31821;51.880;-0.518;2022-09-09T06:36:00;1.73;;;1.00;;
46080;SDS011;31821;51.880;-0.518;2022-09-09T06:38:26;1.80;;;1.10;;
46080;SDS011;31821;51.880;-0.518;2022-09-09T06:40:53;1.88;;;1.10;;
46080;SDS011;31821;51.880;-0.518;2022-09-09T06:43:21;1.60;;;0.90;;
46080;SDS011;31821;51.880;-0.518;2022-09-09T06:45:56;2.05;;;1.20;;
46080;SDS011;31821;51.880;-0.518;2022-09-09T06:48:26;1.77;;;1.00;;
46080;SDS011;31821;51.880;-0.518;2022-09-09T06:51:03;1.70;;;1.20;;
46080;SDS011;31821;51.880;-0.518;2022-09-09T06:53:39;1.42;;;0.90;;
46080;SDS011;31821;51.880;-0.518;2022-09-09T06:56:18;2.40;;;1.25;;
46080;SDS011;31821;51.880;-0.518;2022-09-09T06:58:57;2.05;;;1.00;;
46080;SDS011;31821;51.880;-0.518;2022-09-09T07:01:27;2.22;;;1.05;;
46080;SDS011;31821;51.880;-0.518;2022-09-09T07:03:56;1.75;;;1.00;;
46080;SDS011;31821;51.880;-0.518;2022-09-09T07:06:25;1.70;;;1.00;;
46080;SDS011;31821;51.880;-0.518;2022-09-09T07:08:56;1.48;;;0.93;;
46080;SDS011;31821;51.880;-0.518;2022-09-09T07:11:37;1.30;;;1.00;;
46080;SDS011;31821;51.880;-0.518;2022-09-09T07:14:04;1.80;;;1.00;;
46080;SDS011;31821;51.880;-0.518;2022-09-09T07:16:29;1.58;;;0.90;;
46080;SDS011;31821;51.880;-0.518;2022-09-09T07:18:57;1.67;;;1.10;;
46080;SDS011;31821;51.880;-0.518;2022-09-09T07:21:23;1.90;;;1.05;;
46080;SDS011;31821;51.880;-0.518;2022-09-09T07:23:51;1.33;;;1.00;;
46080;SDS011;31821;51.880;-0.518;2022-09-09T07:26:17;1.77;;;1.17;;
46080;SDS011;31821;51.880;-0.518;2022-09-09T07:28:46;1.13;;;0.95;;
46080;SDS011;31821;51.880;-0.518;2022-09-09T07:31:20;2.15;;;1.20;;
46080;SDS011;31821;51.880;-0.518;2022-09-09T07:33:49;2.95;;;1.15;;
46080;SDS011;31821;51.880;-0.518;2022-09-09T07:36:15;7.75;;;4.78;;
46080;SDS011;31821;51.880;-0.518;2022-09-09T07:38:44;6.05;;;5.10;;
46080;SDS011;31821;51.880;-0.518;2022-09-09T07:41:12;7.20;;;5.78;;
46080;SDS011;31821;51.880;-0.518;2022-09-09T07:43:41;7.30;;;5.75;;
46080;SDS011;31821;51.880;-0.518;2022-09-09T07:46:07;6.57;;;5.38;;
46080;SDS011;31821;51.880;-0.518;2022-09-09T07:48:34;5.45;;;4.57;;
46080;SDS011;31821;51.880;-0.518;2022-09-09T07:51:13;7.05;;;5.47;;
46080;SDS011;31821;51.880;-0.518;2022-09-09T07:53:43;6.28;;;4.90;;
46080;SDS011;31821;51.880;-0.518;2022-09-09T07:56:12;7.18;;;5.38;;
46080;SDS011;31821;51.880;-0.518;2022-09-09T07:58:40;7.03;;;5.07;;
46080;SDS011;31821;51.880;-0.518;2022-09-09T08:01:09;7.65;;;5.40;;
46080;SDS011;31821;51.880;-0.518;2022-09-09T08:03:37;5.22;;;4.63;;
46080;SDS011;31821;51.880;-0.518;2022-09-09T08:06:03;6.57;;;5.35;;
46080;SDS011;31821;51.880;-0.518;2022-09-09T08:08:32;6.85;;;5.18;;
46080;SDS011;31821;51.880;-0.518;2022-09-09T08:11:16;7.63;;;5.35;;
46080;SDS011;31821;51.880;-0.518;2022-09-09T08:13:42;6.05;;;4.13;;
46080;SDS011;31821;51.880;-0.518;2022-09-09T08:18:47;7.97;;;5.93;;
46080;SDS011;31821;51.880;-0.518;2022-09-09T08:21:14;7.47;;;5.40;;
46080;SDS011;31821;51.880;-0.518;2022-09-09T08:23:43;7.57;;;6.10;;
46080;SDS011;31821;51.880;-0.518;2022-09-09T08:26:11;7.72;;;5.35;;
46080;SDS011;31821;51.880;-0.518;2022-09-09T08:28:40;8.60;;;5.65;;
46080;SDS011;31821;51.880;-0.518;2022-09-09T08:31:13;8.05;;;6.22;;
46080;SDS011;31821;51.880;-0.518;2022-09-09T08:33:40;7.03;;;5.72;;
46080;SDS011;31821;51.880;-0.518;2022-09-09T08:36:09;6.82;;;5.03;;
46080;SDS011;31821;51.880;-0.518;2022-09-09T08:38:36;8.38;;;6.20;;
46080;SDS011;31821;51.880;-0.518;2022-09-09T08:58:11;8.27;;;5.63;;
46080;SDS011;31821;51.880;-0.518;2022-09-09T09:00:42;7.75;;;5.70;;
46080;SDS011;31821;51.880;-0.518;2022-09-09T09:03:20;7.68;;;5.90;;
46080;SDS011;31821;51.880;-0.518;2022-09-09T09:06:10;8.80;;;6.25;;
46080;SDS011;31821;51.880;-0.518;2022-09-09T09:11:20;6.60;;;5.30;;
46080;SDS011;31821;51.880;-0.518;2022-09-09T09:13:57;7.55;;;6.10;;
46080;SDS011;31821;51.880;-0.518;2022-09-09T09:19:33;7.82;;;5.47;;
46080;SDS011;31821;51.880;-0.518;2022-09-09T09:27:18;5.35;;;4.38;;
46080;SDS011;31821;51.880;-0.518;2022-09-09T09:29:46;7.45;;;5.97;;
46080;SDS011;31821;51.880;-0.518;2022-09-09T09:32:15;7.00;;;5.82;;
46080;SDS011;31821;51.880;-0.518;2022-09-09T09:34:48;7.25;;;5.10;;
46080;SDS011;31821;51.880;-0.518;2022-09-09T09:37:17;7.95;;;5.82;;
46080;SDS011;31821;51.880;-0.518;2022-09-09T09:39:52;5.88;;;4.53;;
46080;SDS011;31821;51.880;-0.518;2022-09-09T09:42:18;5.85;;;4.72;;
46080;SDS011;31821;51.880;-0.518;2022-09-09T09:44:44;6.38;;;4.60;;
46080;SDS011;31821;51.880;-0.518;2022-09-09T09:49:39;8.07;;;4.22;;
46080;SDS011;31821;51.880;-0.518;2022-09-09T09:52:17;5.40;;;4.43;;
46080;SDS011;31821;51.880;-0.518;2022-09-09T09:54:47;5.93;;;4.25;;
46080;SDS011;31821;51.880;-0.518;2022-09-09T09:57:14;7.50;;;4.72;;
46080;SDS011;31821;51.880;-0.518;2022-09-09T09:59:41;6.07;;;4.32;;
46080;SDS011;31821;51.880;-0.518;2022-09-09T10:05:04;4.35;;;3.55;;
46080;SDS011;31821;51.880;-0.518;2022-09-09T10:07:41;3.85;;;3.45;;
46080;SDS011;31821;51.880;-0.518;2022-09-09T10:10:20;3.75;;;3.28;;
46080;SDS011;31821;51.880;-0.518;2022-09-09T10:13:03;6.18;;;4.05;;
46080;SDS011;31821;51.880;-0.518;2022-09-09T10:15:44;5.18;;;4.15;;
46080;SDS011;31821;51.880;-0.518;2022-09-09T10:19:28;6.28;;;4.22;;
46080;SDS011;31821;51.880;-0.518;2022-09-09T10:35:44;4.40;;;3.00;;
46080;SDS011;31821;51.880;-0.518;2022-09-09T10:37:49;4.03;;;2.65;;
46080;SDS011;31821;51.880;-0.518;2022-09-09T10:54:19;5.55;;;3.83;;
46080;SDS011;31821;51.880;-0.518;2022-09-09T10:57:12;5.38;;;4.00;;
46080;SDS011;31821;51.880;-0.518;2022-09-09T10:59:47;5.07;;;4.00;;
46080;SDS011;31821;51.880;-0.518;2022-09-09T11:02:17;6.40;;;5.10;;
46080;SDS011;31821;51.880;-0.518;2022-09-09T11:05:01;5.13;;;4.25;;
46080;SDS011;31821;51.880;-0.518;2022-09-09T11:07:46;5.85;;;4.15;;
46080;SDS011;31821;51.880;-0.518;2022-09-09T11:10:30;4.30;;;3.50;;
46080;SDS011;31821;51.880;-0.518;2022-09-09T11:15:55;5.43;;;3.72;;
46080;SDS011;31821;51.880;-0.518;2022-09-09T11:18:26;4.32;;;3.75;;
46080;SDS011;31821;51.880;-0.518;2022-09-09T11:20:56;5.07;;;3.92;;
46080;SDS011;31821;51.880;-0.518;2022-09-09T11:26:07;7.10;;;4.68;;
46080;SDS011;31821;51.880;-0.518;2022-09-09T11:37:35;6.35;;;4.93;;
46080;SDS011;31821;51.880;-0.518;2022-09-09T11:40:15;6.90;;;4.95;;
46080;SDS011;31821;51.880;-0.518;2022-09-09T11:42:45;7.70;;;5.25;;
46080;SDS011;31821;51.880;-0.518;2022-09-09T11:47:51;7.15;;;5.32;;
46080;SDS011;31821;51.880;-0.518;2022-09-09T11:53:02;6.32;;;5.28;;
46080;SDS011;31821;51.880;-0.518;2022-09-09T11:55:46;5.68;;;4.88;;
46080;SDS011;31821;51.880;-0.518;2022-09-09T12:00:47;4.20;;;3.10;;
46080;SDS011;31821;51.880;-0.518;2022-09-09T12:06:18;4.32;;;2.72;;
46080;SDS011;31821;51.880;-0.518;2022-09-09T12:08:51;5.35;;;3.40;;
46080;SDS011;31821;51.880;-0.518;2022-09-09T12:11:26;6.55;;;2.90;;
46080;SDS011;31821;51.880;-0.518;2022-09-09T12:13:57;7.80;;;3.10;;
46080;SDS011;31821;51.880;-0.518;2022-09-09T12:16:28;5.68;;;3.22;;
46080;SDS011;31821;51.880;-0.518;2022-09-09T12:19:14;6.78;;;3.30;;
46080;SDS011;31821;51.880;-0.518;2022-09-09T12:22:01;7.05;;;2.90;;
46080;SDS011;31821;51.880;-0.518;2022-09-09T12:27:26;3.63;;;2.67;;
46080;SDS011;31821;51.880;-0.518;2022-09-09T12:30:07;4.05;;;2.45;;
46080;SDS011;31821;51.880;-0.518;2022-09-09T12:32:36;3.70;;;2.45;;
46080;SDS011;31821;51.880;-0.518;2022-09-09T12:35:04;4.00;;;2.50;;
46080;SDS011;31821;51.880;-0.518;2022-09-09T12:37:37;4.72;;;2.70;;
46080;SDS011;31821;51.880;-0.518;2022-09-09T12:40:28;3.80;;;2.53;;
46080;SDS011;31821;51.880;-0.518;2022-09-09T12:42:53;3.20;;;2.10;;
46080;SDS011;31821;51.880;-0.518;2022-09-09T12:45:23;3.33;;;2.30;;
46080;SDS011;31821;51.880;-0.518;2022-09-09T12:50:22;3.85;;;2.28;;
46080;SDS011;31821;51.880;-0.518;2022-09-09T12:52:54;4.90;;;2.63;;
46080;SDS011;31821;51.880;-0.518;2022-09-09T12:55:25;4.22;;;2.35;;
46080;SDS011;31821;51.880;-0.518;2022-09-09T12:57:55;3.33;;;2.15;;
46080;SDS011;31821;51.880;-0.518;2022-09-09T13:00:22;2.55;;;1.70;;
46080;SDS011;31821;51.880;-0.518;2022-09-09T13:02:50;4.25;;;2.38;;
46080;SDS011;31821;51.880;-0.518;2022-09-09T13:05:22;2.87;;;1.90;;
46080;SDS011;31821;51.880;-0.518;2022-09-09T13:07:49;2.97;;;1.88;;
46080;SDS011;31821;51.880;-0.518;2022-09-09T13:10:19;2.95;;;1.90;;
46080;SDS011;31821;51.880;-0.518;2022-09-09T13:12:48;3.00;;;1.60;;
46080;SDS011;31821;51.880;-0.518;2022-09-09T13:15:23;2.17;;;1.75;;
46080;SDS011;31821;51.880;-0.518;2022-09-09T13:17:52;3.08;;;1.92;;
46080;SDS011;31821;51.880;-0.518;2022-09-09T13:20:20;2.67;;;1.88;;
46080;SDS011;31821;51.880;-0.518;2022-09-09T13:22:48;4.22;;;1.90;;
46080;SDS011;31821;51.880;-0.518;2022-09-09T13:25:26;3.92;;;1.90;;
46080;SDS011;31821;51.880;-0.518;2022-09-09T13:27:57;3.42;;;1.70;;
46080;SDS011;31821;51.880;-0.518;2022-09-09T13:30:33;4.05;;;2.03;;
46080;SDS011;31821;51.880;-0.518;2022-09-09T13:35:34;2.45;;;1.58;;
46080;SDS011;31821;51.880;-0.518;2022-09-09T13:38:07;3.10;;;1.63;;
46080;SDS011;31821;51.880;-0.518;2022-09-09T13:40:34;2.80;;;1.70;;
46080;SDS011;31821;51.880;-0.518;2022-09-09T13:43:02;4.00;;;1.75;;
46080;SDS011;31821;51.880;-0.518;2022-09-09T13:45:28;3.22;;;2.10;;
46080;SDS011;31821;51.880;-0.518;2022-09-09T13:47:54;2.60;;;1.73;;
46080;SDS011;31821;51.880;-0.518;2022-09-09T13:52:52;3.28;;;2.05;;
46080;SDS011;31821;51.880;-0.518;2022-09-09T13:55:20;5.10;;;1.98;;
46080;SDS011;31821;51.880;-0.518;2022-09-09T13:58:20;3.03;;;2.00;;
46080;SDS011;31821;51.880;-0.518;2022-09-09T14:00:40;2.58;;;1.60;;
46080;SDS011;31821;51.880;-0.518;2022-09-09T14:03:06;3.53;;;1.60;;
46080;SDS011;31821;51.880;-0.518;2022-09-09T14:05:32;2.50;;;1.70;;
46080;SDS011;31821;51.880;-0.518;2022-09-09T14:07:58;2.80;;;1.80;;
46080;SDS011;31821;51.880;-0.518;2022-09-09T14:10:25;2.30;;;1.60;;
46080;SDS011;31821;51.880;-0.518;2022-09-09T14:12:51;2.63;;;1.48;;
46080;SDS011;31821;51.880;-0.518;2022-09-09T14:15:18;2.70;;;1.38;;
46080;SDS011;31821;51.880;-0.518;2022-09-09T14:17:44;2.67;;;1.65;;
46080;SDS011;31821;51.880;-0.518;2022-09-09T14:20:09;2.25;;;1.50;;
46080;SDS011;31821;51.880;-0.518;2022-09-09T14:22:37;2.97;;;1.42;;
46080;SDS011;31821;51.880;-0.518;2022-09-09T14:25:04;2.83;;;1.65;;
46080;SDS011;31821;51.880;-0.518;2022-09-09T14:27:31;3.55;;;1.67;;
46080;SDS011;31821;51.880;-0.518;2022-09-09T14:29:57;2.83;;;1.42;;
46080;SDS011;31821;51.880;-0.518;2022-09-09T14:32:25;2.63;;;1.38;;
46080;SDS011;31821;51.880;-0.518;2022-09-09T14:34:51;3.25;;;1.75;;
46080;SDS011;31821;51.880;-0.518;2022-09-09T14:37:17;3.17;;;1.58;;
46080;SDS011;31821;51.880;-0.518;2022-09-09T14:39:43;2.78;;;1.40;;
46080;SDS011;31821;51.880;-0.518;2022-09-09T14:42:10;3.20;;;1.33;;
46080;SDS011;31821;51.880;-0.518;2022-09-09T14:44:36;2.38;;;1.50;;
46080;SDS011;31821;51.880;-0.518;2022-09-09T14:47:06;3.67;;;1.50;;
46080;SDS011;31821;51.880;-0.518;2022-09-09T14:49:35;2.65;;;1.30;;
46080;SDS011;31821;51.880;-0.518;2022-09-09T14:52:01;2.53;;;1.50;;
46080;SDS011;31821;51.880;-0.518;2022-09-09T14:54:27;3.15;;;1.60;;
46080;SDS011;31821;51.880;-0.518;2022-09-09T14:56:53;2.75;;;1.55;;
46080;SDS011;31821;51.880;-0.518;2022-09-09T14:59:18;2.50;;;1.33;;
46080;SDS011;31821;51.880;-0.518;2022-09-09T15:01:44;2.35;;;1.33;;
46080;SDS011;31821;51.880;-0.518;2022-09-09T15:04:10;2.92;;;1.33;;
46080;SDS011;31821;51.880;-0.518;2022-09-09T15:06:37;3.22;;;1.70;;
46080;SDS011;31821;51.880;-0.518;2022-09-09T15:09:04;3.95;;;1.60;;
46080;SDS011;31821;51.880;-0.518;2022-09-09T15:11:31;3.90;;;1.70;;
46080;SDS011;31821;51.880;-0.518;2022-09-09T15:16:28;2.45;;;1.30;;
46080;SDS011;31821;51.880;-0.518;2022-09-09T15:18:55;1.95;;;1.23;;
46080;SDS011;31821;51.880;-0.518;2022-09-09T15:21:22;1.90;;;1.35;;
46080;SDS011;31821;51.880;-0.518;2022-09-09T15:23:49;2.63;;;1.27;;
46080;SDS011;31821;51.880;-0.518;2022-09-09T15:26:16;2.90;;;1.40;;
46080;SDS011;31821;51.880;-0.518;2022-09-09T15:28:42;2.08;;;1.50;;
46080;SDS011;31821;51.880;-0.518;2022-09-09T15:33:40;2.33;;;1.58;;
46080;SDS011;31821;51.880;-0.518;2022-09-09T15:36:19;3.75;;;1.50;;
46080;SDS011;31821;51.880;-0.518;2022-09-09T15:38:46;2.57;;;1.87;;
46080;SDS011;31821;51.880;-0.518;2022-09-09T15:41:13;9.30;;;3.10;;
46080;SDS011;31821;51.880;-0.518;2022-09-09T15:43:42;7.15;;;2.95;;
46080;SDS011;31821;51.880;-0.518;2022-09-09T15:46:26;7.85;;;3.10;;
46080;SDS011;31821;51.880;-0.518;2022-09-09T15:49:10;5.03;;;3.08;;
46080;SDS011;31821;51.880;-0.518;2022-09-09T15:51:39;4.97;;;3.03;;
46080;SDS011;31821;51.880;-0.518;2022-09-09T15:54:06;4.82;;;3.08;;
46080;SDS011;31821;51.880;-0.518;2022-09-09T15:56:32;4.10;;;2.72;;
46080;SDS011;31821;51.880;-0.518;2022-09-09T15:59:00;5.13;;;2.85;;
46080;SDS011;31821;51.880;-0.518;2022-09-09T16:01:28;6.75;;;3.42;;
46080;SDS011;31821;51.880;-0.518;2022-09-09T16:03:56;3.60;;;2.75;;
46080;SDS011;31821;51.880;-0.518;2022-09-09T16:06:23;5.47;;;3.53;;
46080;SDS011;31821;51.880;-0.518;2022-09-09T16:08:51;6.65;;;3.70;;
46080;SDS011;31821;51.880;-0.518;2022-09-09T16:11:21;7.22;;;4.10;;
46080;SDS011;31821;51.880;-0.518;2022-09-09T16:13:52;7.18;;;4.97;;
46080;SDS011;31821;51.880;-0.518;2022-09-09T16:16:19;8.23;;;4.80;;
46080;SDS011;31821;51.880;-0.518;2022-09-09T16:18:53;7.87;;;5.10;;
46080;SDS011;31821;51.880;-0.518;2022-09-09T16:21:22;5.25;;;3.53;;
46080;SDS011;31821;51.880;-0.518;2022-09-09T16:23:54;4.82;;;2.55;;
46080;SDS011;31821;51.880;-0.518;2022-09-09T16:26:21;3.08;;;2.00;;
46080;SDS011;31821;51.880;-0.518;2022-09-09T16:28:48;3.38;;;2.20;;
46080;SDS011;31821;51.880;-0.518;2022-09-09T16:31:15;2.45;;;1.88;;
46080;SDS011;31821;51.880;-0.518;2022-09-09T16:33:43;3.33;;;1.80;;
46080;SDS011;31821;51.880;-0.518;2022-09-09T16:36:10;3.03;;;1.90;;
46080;SDS011;31821;51.880;-0.518;2022-09-09T16:38:37;3.88;;;2.22;;
46080;SDS011;31821;51.880;-0.518;2022-09-09T16:41:04;4.38;;;1.88;;
46080;SDS011;31821;51.880;-0.518;2022-09-09T16:43:31;3.75;;;1.85;;
46080;SDS011;31821;51.880;-0.518;2022-09-09T16:45:57;4.45;;;2.17;;
46080;SDS011;31821;51.880;-0.518;2022-09-09T16:48:26;2.05;;;1.73;;
46080;SDS011;31821;51.880;-0.518;2022-09-09T16:50:52;3.08;;;1.80;;
46080;SDS011;31821;51.880;-0.518;2022-09-09T16:53:18;4.15;;;2.13;;
46080;SDS011;31821;51.880;-0.518;2022-09-09T16:55:43;3.00;;;1.67;;
46080;SDS011;31821;51.880;-0.518;2022-09-09T16:58:12;3.70;;;1.92;;
46080;SDS011;31821;51.880;-0.518;2022-09-09T17:00:37;4.05;;;2.20;;
46080;SDS011;31821;51.880;-0.518;2022-09-09T17:03:03;3.08;;;1.70;;
46080;SDS011;31821;51.880;-0.518;2022-09-09T17:05:28;3.70;;;1.90;;
46080;SDS011;31821;51.880;-0.518;2022-09-09T17:07:54;3.38;;;1.90;;
46080;SDS011;31821;51.880;-0.518;2022-09-09T17:10:24;3.03;;;1.90;;
46080;SDS011;31821;51.880;-0.518;2022-09-09T17:12:50;3.65;;;1.80;;
46080;SDS011;31821;51.880;-0.518;2022-09-09T17:15:16;3.28;;;1.90;;
46080;SDS011;31821;51.880;-0.518;2022-09-09T17:17:43;3.13;;;2.03;;
46080;SDS011;31821;51.880;-0.518;2022-09-09T17:20:10;2.70;;;1.80;;
46080;SDS011;31821;51.880;-0.518;2022-09-09T17:22:36;14.38;;;3.40;;
46080;SDS011;31821;51.880;-0.518;2022-09-09T17:25:01;3.85;;;1.98;;